Time;durP1;ratioP1;P1;durP2;ratioP2;P2;SDS_P1;SDS_P2;PMS_P1;PMS_P2;Temp;Humidity;BMP_temperature;BMP_pressure;BME280_temperature;BME280_humidity;BME280_pressure;Samples;Min_cycle;Max_cycle;Signal;HPM_P1;HPM_P2
2021/10/31 00:01:08;;;;;;;;;;;9.40;67.70;;;;;;4964773;28;82097;-59
2021/10/31 00:03:34;;;;;;;;;;;9.40;67.60;;;;;;4964651;28;83685;-60
2021/10/31 00:05:59;;;;;;;;;;;9.40;67.60;;;;;;4964757;28;83438;-59
2021/10/31 00:08:25;;;;;;;;;;;9.30;67.50;;;;;;4966717;28;82159;-59
2021/10/31 00:10:51;;;;;;;;;;;9.40;67.50;;;;;;4964458;28;83302;-59
2021/10/31 00:13:17;;;;;;;;;;;9.30;67.50;;;;;;4962821;28;82028;-59
2021/10/31 00:15:42;;;;;;;;;;;9.30;67.50;;;;;;4964667;28;83529;-59
2021/10/31 00:18:08;;;;;;;;;;;9.30;67.60;;;;;;4961059;28;83574;-60
2021/10/31 00:20:34;;;;;;;;;;;9.30;67.60;;;;;;4963210;28;82068;-59
2021/10/31 00:22:59;;;;;;;;;;;9.20;67.50;;;;;;4964124;28;83656;-59
2021/10/31 00:25:25;;;;;;;;;;;9.30;67.60;;;;;;4962381;28;82775;-59
2021/10/31 00:27:51;;;;;;;;;;;9.20;67.60;;;;;;4967110;28;82857;-59
2021/10/31 00:30:16;;;;;;;;;;;9.20;67.50;;;;;;4962131;28;84926;-59
2021/10/31 00:32:42;;;;;;;;;;;9.10;67.50;;;;;;4964254;28;82072;-59
2021/10/31 00:35:07;;;;;;;;;;;9.20;67.60;;;;;;4963080;28;83093;-59
2021/10/31 00:37:33;;;;;;;;;;;9.20;67.60;;;;;;4960668;28;84580;-60
2021/10/31 00:39:59;;;;;;;;;;;9.20;67.70;;;;;;4960905;28;83031;-59
2021/10/31 00:42:24;;;;;;;;;;;9.10;67.50;;;;;;4960075;28;83068;-60
2021/10/31 00:44:50;;;;;;;;;;;9.10;67.60;;;;;;4962953;28;83543;-59
2021/10/31 00:47:15;;;;;;;;;;;9.10;67.70;;;;;;4964495;28;83220;-59
2021/10/31 00:49:41;;;;;;;;;;;9.10;67.70;;;;;;4964105;28;82141;-60
2021/10/31 00:52:09;;;;;;;;;;;9.00;67.60;;;;;;4962026;28;83451;-59
2021/10/31 00:54:34;;;;;;;;;;;9.00;67.70;;;;;;4963629;28;82673;-60
2021/10/31 00:57:01;;;;;;;;;;;9.00;67.60;;;;;;4962803;28;82973;-59
2021/10/31 00:59:26;;;;;;;;;;;9.00;67.60;;;;;;4961974;28;81378;-59
2021/10/31 01:01:53;;;;;;;;;;;9.00;67.60;;;;;;4963027;28;82136;-60
2021/10/31 01:04:23;;;;;;;;;;;9.00;67.60;;;;;;4967391;28;83050;-60
2021/10/31 01:07:03;;;;;;;;;;;9.00;67.60;;;;;;4966818;28;82885;-59
2021/10/31 01:09:28;;;;;;;;;;;9.00;67.70;;;;;;4967238;28;84586;-59
2021/10/31 01:12:01;;;;;;;;;;;8.90;67.50;;;;;;4970140;28;82443;-59
2021/10/31 01:14:26;;;;;;;;;;;8.90;67.60;;;;;;4967471;28;82495;-59
2021/10/31 01:17:01;;;;;;;;;;;8.90;67.60;;;;;;4967303;28;82948;-59
2021/10/31 01:19:29;;;;;;;;;;;8.90;67.60;;;;;;4967313;28;82116;-59
2021/10/31 01:22:05;;;;;;;;;;;8.80;67.60;;;;;;4967268;28;82430;-59
2021/10/31 01:24:33;;;;;;;;;;;8.80;67.70;;;;;;4968058;28;81685;-59
2021/10/31 01:27:17;;;;;;;;;;;8.80;67.70;;;;;;4967164;28;83820;-59
2021/10/31 01:29:50;;;;;;;;;;;8.80;67.70;;;;;;4967223;28;82481;-59
2021/10/31 01:32:42;;;;;;;;;;;8.80;67.70;;;;;;4965698;28;85595;-59
2021/10/31 01:35:20;;;;;;;;;;;8.80;67.70;;;;;;4952769;28;82063;-60
2021/10/31 01:37:47;;;;;;;;;;;8.80;67.60;;;;;;4966518;28;84940;-60
2021/10/31 01:40:24;;;;;;;;;;;8.70;67.60;;;;;;4967375;28;81782;-59
2021/10/31 01:43:08;;;;;;;;;;;8.70;67.60;;;;;;4966468;28;82475;-60
2021/10/31 01:45:38;;;;;;;;;;;8.70;67.60;;;;;;4966471;28;83100;-60
2021/10/31 01:48:17;;;;;;;;;;;8.70;67.60;;;;;;4967017;28;82073;-59
2021/10/31 01:50:45;;;;;;;;;;;8.60;67.60;;;;;;4967863;28;82115;-59
2021/10/31 01:53:13;;;;;;;;;;;8.60;67.50;;;;;;4966830;28;83955;-59
2021/10/31 01:55:45;;;;;;;;;;;8.60;67.70;;;;;;4966992;28;81828;-59
2021/10/31 01:58:11;;;;;;;;;;;8.60;67.60;;;;;;4968710;28;83039;-60
2021/10/31 02:00:38;;;;;;;;;;;8.60;67.60;;;;;;4966720;28;82092;-59
2021/10/31 02:03:04;;;;;;;;;;;8.60;68.30;;;;;;4960321;28;83769;-60
2021/10/31 02:05:33;;;;;;;;;;;8.60;67.60;;;;;;4963409;28;83077;-60
2021/10/31 02:08:02;;;;;;;;;;;8.60;67.50;;;;;;4960498;28;82199;-59
2021/10/31 02:10:29;;;;;;;;;;;8.50;67.50;;;;;;4963577;28;82086;-60
2021/10/31 02:12:54;;;;;;;;;;;8.50;67.60;;;;;;4962152;28;83686;-59
2021/10/31 02:15:21;;;;;;;;;;;8.50;67.60;;;;;;4966830;28;81348;-59
2021/10/31 02:17:48;;;;;;;;;;;8.50;67.60;;;;;;4965913;28;82112;-60
2021/10/31 02:20:14;;;;;;;;;;;8.50;67.80;;;;;;4967321;28;84355;-60
2021/10/31 02:22:41;;;;;;;;;;;8.40;67.70;;;;;;4962594;28;83560;-59
2021/10/31 02:25:07;;;;;;;;;;;8.50;67.70;;;;;;4966982;28;82618;-60
2021/10/31 02:27:33;;;;;;;;;;;8.50;67.50;;;;;;4967205;28;82082;-60
2021/10/31 02:29:59;;;;;;;;;;;8.40;67.50;;;;;;4966971;28;82109;-60
2021/10/31 02:32:26;;;;;;;;;;;8.40;67.60;;;;;;4965263;28;82951;-60
2021/10/31 02:34:54;;;;;;;;;;;8.40;67.60;;;;;;4963074;28;82122;-59
2021/10/31 02:37:20;;;;;;;;;;;8.40;67.60;;;;;;4966134;28;83973;-60
2021/10/31 02:39:45;;;;;;;;;;;8.40;67.60;;;;;;4970540;28;81749;-60
2021/10/31 02:42:11;;;;;;;;;;;8.30;67.50;;;;;;4966893;28;82080;-59
2021/10/31 02:44:37;;;;;;;;;;;8.30;67.50;;;;;;4965442;28;84215;-60
2021/10/31 02:47:04;;;;;;;;;;;8.30;67.60;;;;;;4965801;28;83071;-59
2021/10/31 02:49:29;;;;;;;;;;;8.30;67.60;;;;;;4966095;28;82953;-60
2021/10/31 02:51:58;;;;;;;;;;;8.30;67.60;;;;;;4966907;28;82112;-60
2021/10/31 02:55:02;;;;;;;;;;;8.30;67.60;;;;;;4964374;28;82183;-59
2021/10/31 02:57:31;;;;;;;;;;;8.20;67.50;;;;;;4926101;28;82222;-60
2021/10/31 03:00:00;;;;;;;;;;;8.20;67.50;;;;;;4924816;28;82680;-60
2021/10/31 03:02:26;;;;;;;;;;;8.20;67.60;;;;;;4944880;28;82188;-60
2021/10/31 03:04:52;;;;;;;;;;;8.20;67.40;;;;;;4965146;28;82320;-59
2021/10/31 03:07:18;;;;;;;;;;;8.20;67.60;;;;;;4963368;28;82062;-59
2021/10/31 03:09:47;;;;;;;;;;;8.20;67.60;;;;;;4962911;28;82248;-59
2021/10/31 03:12:13;;;;;;;;;;;8.20;67.40;;;;;;4965060;28;83006;-60
2021/10/31 03:14:38;;;;;;;;;;;8.10;67.40;;;;;;4966439;28;82195;-60
2021/10/31 03:17:05;;;;;;;;;;;8.10;67.50;;;;;;4966357;28;83680;-60
2021/10/31 03:19:31;;;;;;;;;;;8.10;67.50;;;;;;4966617;28;83026;-60
2021/10/31 03:21:57;;;;;;;;;;;8.10;67.50;;;;;;4965723;28;82109;-59
2021/10/31 03:24:23;;;;;;;;;;;8.10;67.40;;;;;;4967082;28;82863;-60
2021/10/31 03:26:49;;;;;;;;;;;8.10;67.50;;;;;;4965333;28;82130;-59
2021/10/31 03:29:14;;;;;;;;;;;8.00;67.50;;;;;;4966745;28;81498;-60
2021/10/31 03:31:40;;;;;;;;;;;8.00;67.60;;;;;;4964907;28;83150;-60
2021/10/31 03:34:06;;;;;;;;;;;8.00;67.50;;;;;;4965845;28;83090;-60
2021/10/31 03:36:31;;;;;;;;;;;8.00;67.50;;;;;;4962810;28;83340;-59
2021/10/31 03:38:57;;;;;;;;;;;8.00;67.50;;;;;;4962254;28;82086;-60
2021/10/31 03:41:22;;;;;;;;;;;8.00;67.50;;;;;;4963566;28;82226;-60
2021/10/31 03:43:48;;;;;;;;;;;8.00;67.50;;;;;;4964678;28;82725;-60
2021/10/31 03:46:13;;;;;;;;;;;7.90;67.40;;;;;;4967632;28;83176;-59
2021/10/31 03:48:39;;;;;;;;;;;7.90;67.40;;;;;;4964587;28;82071;-60
2021/10/31 03:51:04;;;;;;;;;;;7.90;67.40;;;;;;4965437;28;83117;-59
2021/10/31 03:53:30;;;;;;;;;;;7.90;67.40;;;;;;4965910;28;82083;-59
2021/10/31 03:55:55;;;;;;;;;;;7.90;67.40;;;;;;4962203;28;82905;-60
2021/10/31 03:58:21;;;;;;;;;;;7.80;67.50;;;;;;4962341;28;82080;-60
2021/10/31 04:00:47;;;;;;;;;;;7.80;67.50;;;;;;4963039;28;83111;-59
2021/10/31 04:03:12;;;;;;;;;;;7.90;67.40;;;;;;4964628;28;83011;-59
2021/10/31 04:05:38;;;;;;;;;;;7.80;67.50;;;;;;4964026;28;84339;-60
2021/10/31 04:08:04;;;;;;;;;;;7.70;67.50;;;;;;4966741;28;82093;-59
2021/10/31 04:10:29;;;;;;;;;;;7.80;67.60;;;;;;4964736;28;83688;-60
2021/10/31 04:12:55;;;;;;;;;;;7.70;67.50;;;;;;4966009;28;82123;-60
2021/10/31 04:15:21;;;;;;;;;;;7.80;67.50;;;;;;4964103;28;82837;-60
2021/10/31 04:17:47;;;;;;;;;;;7.70;67.50;;;;;;4965351;28;82440;-59
2021/10/31 04:20:12;;;;;;;;;;;7.70;67.50;;;;;;4962924;28;83741;-59
2021/10/31 04:22:38;;;;;;;;;;;7.70;67.60;;;;;;4961382;28;83320;-59
2021/10/31 04:25:04;;;;;;;;;;;7.70;67.50;;;;;;4961890;28;84033;-59
2021/10/31 04:27:30;;;;;;;;;;;7.60;67.50;;;;;;4962937;28;82159;-60
2021/10/31 04:29:55;;;;;;;;;;;7.60;67.50;;;;;;4966807;28;82975;-60
2021/10/31 04:32:21;;;;;;;;;;;7.60;67.50;;;;;;4963372;28;82124;-59
2021/10/31 04:34:47;;;;;;;;;;;7.60;67.40;;;;;;4962480;28;82530;-60
2021/10/31 04:37:13;;;;;;;;;;;7.60;68.00;;;;;;4960319;28;84448;-60
2021/10/31 04:39:38;;;;;;;;;;;7.60;67.40;;;;;;4961224;28;82094;-59
2021/10/31 04:42:05;;;;;;;;;;;7.60;67.60;;;;;;4962813;28;81364;-60
2021/10/31 04:44:32;;;;;;;;;;;7.50;67.60;;;;;;4961703;28;83758;-60
2021/10/31 04:46:57;;;;;;;;;;;7.50;67.70;;;;;;4961581;28;82096;-60
2021/10/31 04:49:23;;;;;;;;;;;7.50;67.60;;;;;;4964491;28;83072;-60
2021/10/31 04:51:48;;;;;;;;;;;7.50;67.60;;;;;;4962736;28;82136;-60
2021/10/31 04:54:14;;;;;;;;;;;7.50;67.50;;;;;;4962977;28;83906;-60
2021/10/31 04:56:40;;;;;;;;;;;7.50;67.50;;;;;;4962535;28;82665;-59
2021/10/31 04:59:06;;;;;;;;;;;7.50;67.60;;;;;;4963817;28;82091;-60
2021/10/31 05:01:31;;;;;;;;;;;7.40;67.60;;;;;;4964647;28;82720;-60
2021/10/31 05:03:57;;;;;;;;;;;7.40;67.50;;;;;;4964949;28;82638;-60
2021/10/31 05:06:22;;;;;;;;;;;7.40;67.60;;;;;;4964248;28;82429;-60
2021/10/31 05:08:48;;;;;;;;;;;7.40;67.50;;;;;;4961120;28;82819;-60
2021/10/31 05:11:14;;;;;;;;;;;7.40;67.60;;;;;;4963508;28;83146;-60
2021/10/31 05:13:40;;;;;;;;;;;7.30;67.50;;;;;;4960281;28;83012;-60
2021/10/31 05:16:07;;;;;;;;;;;7.40;67.60;;;;;;4963220;28;83284;-59
2021/10/31 05:18:32;;;;;;;;;;;7.40;67.50;;;;;;4962068;28;83806;-60
2021/10/31 05:20:58;;;;;;;;;;;7.30;67.60;;;;;;4961815;28;82805;-60
2021/10/31 05:23:24;;;;;;;;;;;7.30;67.50;;;;;;4962635;28;84936;-60
2021/10/31 05:25:49;;;;;;;;;;;7.30;67.70;;;;;;4961751;28;83822;-59
2021/10/31 05:28:15;;;;;;;;;;;7.30;67.60;;;;;;4961482;28;82496;-60
2021/10/31 05:30:40;;;;;;;;;;;7.30;67.60;;;;;;4961106;28;83769;-59
2021/10/31 05:33:06;;;;;;;;;;;7.30;67.60;;;;;;4964234;28;82151;-60
2021/10/31 05:35:32;;;;;;;;;;;7.20;67.70;;;;;;4961289;28;84745;-59
2021/10/31 05:37:58;;;;;;;;;;;7.20;67.60;;;;;;4961836;28;83083;-60
2021/10/31 05:40:25;;;;;;;;;;;7.20;67.50;;;;;;4962492;28;84542;-59
2021/10/31 05:42:50;;;;;;;;;;;7.20;67.40;;;;;;4962031;28;83018;-60
2021/10/31 05:45:16;;;;;;;;;;;7.20;67.60;;;;;;4962365;28;82133;-60
2021/10/31 05:47:43;;;;;;;;;;;7.20;67.50;;;;;;4963088;28;82875;-59
2021/10/31 05:50:10;;;;;;;;;;;7.20;67.50;;;;;;4961019;28;84312;-60
2021/10/31 05:52:36;;;;;;;;;;;7.20;67.60;;;;;;4960506;28;82146;-60
2021/10/31 05:55:02;;;;;;;;;;;7.20;67.40;;;;;;4964265;28;82499;-59
2021/10/31 05:57:28;;;;;;;;;;;7.20;67.40;;;;;;4961695;28;82226;-60
2021/10/31 05:59:53;;;;;;;;;;;7.20;67.40;;;;;;4962628;28;82145;-60
2021/10/31 06:02:19;;;;;;;;;;;7.20;67.40;;;;;;4961579;28;84463;-59
2021/10/31 06:04:46;;;;;;;;;;;7.20;67.40;;;;;;4961860;28;82092;-59
2021/10/31 06:07:12;;;;;;;;;;;7.20;67.40;;;;;;4960164;28;83955;-60
2021/10/31 06:09:37;;;;;;;;;;;7.10;67.40;;;;;;4964074;28;84298;-59
2021/10/31 06:12:03;;;;;;;;;;;7.20;67.40;;;;;;4963874;28;82165;-59
2021/10/31 06:14:29;;;;;;;;;;;7.10;67.20;;;;;;4962275;28;82472;-59
2021/10/31 06:16:55;;;;;;;;;;;7.10;67.30;;;;;;4964160;28;82661;-59
2021/10/31 06:19:20;;;;;;;;;;;7.10;67.20;;;;;;4962065;28;82947;-59
2021/10/31 06:21:46;;;;;;;;;;;7.10;67.40;;;;;;4960789;28;82805;-59
2021/10/31 06:24:11;;;;;;;;;;;7.10;67.30;;;;;;4961383;28;82086;-60
2021/10/31 06:26:37;;;;;;;;;;;7.10;67.30;;;;;;4960222;28;83089;-60
2021/10/31 06:29:02;;;;;;;;;;;7.00;67.30;;;;;;4959679;28;83182;-60
2021/10/31 06:31:28;;;;;;;;;;;7.10;67.30;;;;;;4960276;28;82119;-60
2021/10/31 06:33:53;;;;;;;;;;;7.10;67.90;;;;;;4961236;28;82104;-60
2021/10/31 06:36:19;;;;;;;;;;;7.00;67.30;;;;;;4960805;28;83719;-60
2021/10/31 06:38:44;;;;;;;;;;;7.10;67.40;;;;;;4963706;28;82170;-59
2021/10/31 06:41:10;;;;;;;;;;;7.10;67.40;;;;;;4960230;28;83122;-59
2021/10/31 06:43:36;;;;;;;;;;;7.10;67.30;;;;;;4961449;28;81339;-59
2021/10/31 06:46:02;;;;;;;;;;;7.10;67.30;;;;;;4961771;28;82077;-59
2021/10/31 06:48:27;;;;;;;;;;;7.00;67.30;;;;;;4961028;28;82893;-59
2021/10/31 06:50:54;;;;;;;;;;;7.00;67.40;;;;;;4959894;28;83063;-59
2021/10/31 06:53:20;;;;;;;;;;;7.00;67.40;;;;;;4959874;28;84856;-60
2021/10/31 06:55:46;;;;;;;;;;;7.00;67.50;;;;;;4960063;28;83806;-59
2021/10/31 06:58:12;;;;;;;;;;;7.00;67.40;;;;;;4963458;28;82143;-60
2021/10/31 07:00:37;;;;;;;;;;;7.00;67.40;;;;;;4963969;28;82949;-59
2021/10/31 07:03:03;;;;;;;;;;;7.00;67.50;;;;;;4964517;28;82055;-59
2021/10/31 07:05:28;;;;;;;;;;;7.00;67.60;;;;;;4965557;28;82123;-59
2021/10/31 07:07:54;;;;;;;;;;;7.00;67.60;;;;;;4962524;28;83702;-59
2021/10/31 07:10:19;;;;;;;;;;;7.00;67.70;;;;;;4963598;28;83437;-59
2021/10/31 07:12:45;;;;;;;;;;;7.00;67.60;;;;;;4962032;28;82193;-60
2021/10/31 07:15:11;;;;;;;;;;;7.00;67.40;;;;;;4962385;28;84240;-60
2021/10/31 07:17:38;;;;;;;;;;;7.00;68.00;;;;;;4964363;28;82086;-60
2021/10/31 07:20:04;;;;;;;;;;;7.00;67.50;;;;;;4965386;28;82522;-59
2021/10/31 07:22:30;;;;;;;;;;;7.00;67.50;;;;;;4964492;28;82084;-60
2021/10/31 07:24:56;;;;;;;;;;;7.00;67.70;;;;;;4966535;28;82094;-60
2021/10/31 07:27:22;;;;;;;;;;;7.00;67.70;;;;;;4965552;28;82583;-60
2021/10/31 07:29:48;;;;;;;;;;;7.00;67.70;;;;;;4965355;28;83506;-59
2021/10/31 07:32:13;;;;;;;;;;;7.00;67.60;;;;;;4966885;28;82402;-60
2021/10/31 07:34:39;;;;;;;;;;;7.00;67.60;;;;;;4965998;28;84782;-59
2021/10/31 07:37:05;;;;;;;;;;;7.10;67.60;;;;;;4963452;28;82644;-59
2021/10/31 07:39:32;;;;;;;;;;;7.00;67.50;;;;;;4962626;28;84552;-60
2021/10/31 07:41:58;;;;;;;;;;;7.00;67.50;;;;;;4966308;28;83936;-60
2021/10/31 07:44:23;;;;;;;;;;;7.00;67.60;;;;;;4966765;28;82126;-60
2021/10/31 07:46:49;;;;;;;;;;;7.00;67.60;;;;;;4965445;28;83300;-59
2021/10/31 07:49:14;;;;;;;;;;;7.00;67.60;;;;;;4965291;28;82215;-60
2021/10/31 07:51:40;;;;;;;;;;;7.00;67.70;;;;;;4965589;28;83129;-59
2021/10/31 07:54:06;;;;;;;;;;;7.00;67.70;;;;;;4965232;28;84325;-60
2021/10/31 07:56:35;;;;;;;;;;;7.00;67.70;;;;;;4962834;28;82350;-59
2021/10/31 07:59:00;;;;;;;;;;;7.00;67.60;;;;;;4963599;28;83115;-60
2021/10/31 08:01:26;;;;;;;;;;;7.00;67.60;;;;;;4963098;28;83120;-60
2021/10/31 08:03:55;;;;;;;;;;;7.00;67.70;;;;;;4967949;28;83031;-60
2021/10/31 08:06:22;;;;;;;;;;;7.00;67.70;;;;;;4962676;28;82956;-60
2021/10/31 08:08:47;;;;;;;;;;;7.00;67.80;;;;;;4962120;28;82229;-60
2021/10/31 08:11:13;;;;;;;;;;;7.00;67.80;;;;;;4962742;28;82692;-59
2021/10/31 08:13:39;;;;;;;;;;;7.00;67.90;;;;;;4961710;28;82868;-60
2021/10/31 08:16:05;;;;;;;;;;;7.00;67.90;;;;;;4961552;28;82087;-60
2021/10/31 08:18:31;;;;;;;;;;;7.00;68.00;;;;;;4962024;28;82978;-60
2021/10/31 08:20:57;;;;;;;;;;;6.90;68.20;;;;;;4965058;28;82309;-60
2021/10/31 08:23:22;;;;;;;;;;;6.90;68.40;;;;;;4962482;28;82102;-59
2021/10/31 08:25:49;;;;;;;;;;;6.90;68.40;;;;;;4963502;28;82120;-60
2021/10/31 08:28:16;;;;;;;;;;;6.90;68.50;;;;;;4962399;28;83969;-60
2021/10/31 08:30:45;;;;;;;;;;;6.90;68.40;;;;;;4961621;28;84870;-59
2021/10/31 08:33:23;;;;;;;;;;;6.90;68.40;;;;;;4962863;28;83316;-60
2021/10/31 08:35:49;;;;;;;;;;;6.90;68.60;;;;;;4965179;28;82110;-60
2021/10/31 08:38:15;;;;;;;;;;;6.80;68.70;;;;;;4965521;28;83130;-60
2021/10/31 08:40:41;;;;;;;;;;;6.90;68.60;;;;;;4963079;28;84126;-59
2021/10/31 08:43:08;;;;;;;;;;;6.90;68.50;;;;;;4964162;28;82309;-60
2021/10/31 08:45:34;;;;;;;;;;;6.80;68.70;;;;;;4967074;28;84152;-59
2021/10/31 08:48:00;;;;;;;;;;;6.80;68.90;;;;;;4963322;28;82122;-60
2021/10/31 08:50:26;;;;;;;;;;;6.90;68.80;;;;;;4962604;28;82106;-60
2021/10/31 08:52:51;;;;;;;;;;;6.90;68.70;;;;;;4961668;28;84200;-59
2021/10/31 08:55:17;;;;;;;;;;;6.90;68.80;;;;;;4963957;28;82089;-60
2021/10/31 08:57:42;;;;;;;;;;;6.90;68.80;;;;;;4964638;28;83844;-60
2021/10/31 09:00:08;;;;;;;;;;;6.90;69.10;;;;;;4961662;28;83655;-59
2021/10/31 09:02:34;;;;;;;;;;;6.90;68.90;;;;;;4961516;28;82164;-60
2021/10/31 09:05:00;;;;;;;;;;;6.90;69.00;;;;;;4961644;28;82403;-60
2021/10/31 09:07:25;;;;;;;;;;;6.90;69.00;;;;;;4963624;28;82118;-59
2021/10/31 09:09:52;;;;;;;;;;;6.90;69.00;;;;;;4962254;28;82571;-60
2021/10/31 09:12:17;;;;;;;;;;;6.90;68.80;;;;;;4961962;28;84725;-60
2021/10/31 09:14:43;;;;;;;;;;;7.00;68.80;;;;;;4963599;28;82092;-60
2021/10/31 09:17:08;;;;;;;;;;;6.90;69.00;;;;;;4960135;28;83061;-60
2021/10/31 09:19:35;;;;;;;;;;;6.90;69.00;;;;;;4961546;28;83521;-60
2021/10/31 09:22:00;;;;;;;;;;;6.90;69.10;;;;;;4960562;28;82116;-60
2021/10/31 09:24:27;;;;;;;;;;;6.90;69.00;;;;;;4960780;28;82120;-60
2021/10/31 09:26:52;;;;;;;;;;;7.00;69.10;;;;;;4961387;28;82466;-60
2021/10/31 09:29:18;;;;;;;;;;;7.00;69.20;;;;;;4964281;28;82148;-60
2021/10/31 09:31:44;;;;;;;;;;;6.90;69.10;;;;;;4960790;28;82118;-59
2021/10/31 09:34:10;;;;;;;;;;;7.00;69.00;;;;;;4963906;28;83052;-60
2021/10/31 09:36:36;;;;;;;;;;;7.00;69.10;;;;;;4961200;28;83887;-60
2021/10/31 09:39:06;;;;;;;;;;;7.00;69.10;;;;;;4960557;28;83695;-60
2021/10/31 09:41:32;;;;;;;;;;;7.00;69.20;;;;;;4960051;28;83133;-60
2021/10/31 09:44:16;;;;;;;;;;;7.00;69.30;;;;;;4962346;28;85290;-60
2021/10/31 09:46:42;;;;;;;;;;;7.00;69.20;;;;;;4962919;28;83921;-60
2021/10/31 09:49:08;;;;;;;;;;;7.00;69.30;;;;;;4961888;28;82168;-60
2021/10/31 09:51:34;;;;;;;;;;;7.00;69.30;;;;;;4963691;28;82394;-60
2021/10/31 09:54:00;;;;;;;;;;;7.00;69.40;;;;;;4961983;28;83610;-60
2021/10/31 09:56:26;;;;;;;;;;;7.00;69.30;;;;;;4964230;28;82760;-60
2021/10/31 09:58:53;;;;;;;;;;;7.00;69.30;;;;;;4963336;28;83011;-60
2021/10/31 10:01:48;;;;;;;;;;;7.00;69.40;;;;;;4963731;28;82881;-60
2021/10/31 10:04:21;;;;;;;;;;;7.00;69.40;;;;;;4960766;28;83747;-60
2021/10/31 10:06:50;;;;;;;;;;;7.00;69.50;;;;;;4960707;28;84157;-60
2021/10/31 10:09:15;;;;;;;;;;;7.10;69.40;;;;;;4962598;28;83908;-60
2021/10/31 10:11:42;;;;;;;;;;;7.10;69.30;;;;;;4962986;28;82769;-60
2021/10/31 10:14:11;;;;;;;;;;;7.10;69.30;;;;;;4965262;28;83129;-60
2021/10/31 10:16:36;;;;;;;;;;;7.10;69.40;;;;;;4962025;28;83578;-60
2021/10/31 10:19:13;;;;;;;;;;;7.10;69.50;;;;;;4962345;28;82712;-60
2021/10/31 10:21:38;;;;;;;;;;;7.00;69.60;;;;;;4963446;28;82104;-60
2021/10/31 10:24:09;;;;;;;;;;;7.10;69.70;;;;;;4962842;28;83011;-60
2021/10/31 10:26:36;;;;;;;;;;;7.10;69.70;;;;;;4960438;28;84301;-60
2021/10/31 10:29:01;;;;;;;;;;;7.10;69.80;;;;;;4961001;28;83576;-60
2021/10/31 10:31:28;;;;;;;;;;;7.10;69.90;;;;;;4963246;28;83963;-60
2021/10/31 10:33:53;;;;;;;;;;;7.10;70.10;;;;;;4963236;28;84999;-60
2021/10/31 10:36:19;;;;;;;;;;;7.10;70.30;;;;;;4969148;28;82121;-60
2021/10/31 10:39:06;;;;;;;;;;;7.10;70.30;;;;;;4965714;28;83084;-60
2021/10/31 10:41:41;;;;;;;;;;;7.10;70.40;;;;;;4963349;28;82252;-60
2021/10/31 10:44:20;;;;;;;;;;;7.10;70.30;;;;;;4966741;28;82127;-60
2021/10/31 10:46:47;;;;;;;;;;;7.10;70.40;;;;;;4964437;28;82592;-60
2021/10/31 10:49:17;;;;;;;;;;;7.10;70.50;;;;;;4963349;28;81398;-60
2021/10/31 10:51:44;;;;;;;;;;;7.10;70.60;;;;;;4964626;28;82186;-60
2021/10/31 10:54:11;;;;;;;;;;;7.10;70.60;;;;;;4962796;28;84204;-60
2021/10/31 10:56:36;;;;;;;;;;;7.10;70.50;;;;;;4969131;28;83017;-60
2021/10/31 10:59:02;;;;;;;;;;;7.20;70.40;;;;;;4966049;28;84390;-60
2021/10/31 11:01:28;;;;;;;;;;;7.20;70.50;;;;;;4965919;28;82072;-60
2021/10/31 11:03:53;;;;;;;;;;;7.20;70.40;;;;;;4964242;28;82087;-60
2021/10/31 11:06:25;;;;;;;;;;;7.20;70.30;;;;;;4964653;28;83498;-60
2021/10/31 11:09:11;;;;;;;;;;;7.20;70.40;;;;;;4966300;28;82097;-60
2021/10/31 11:11:36;;;;;;;;;;;7.20;70.30;;;;;;4966707;28;82978;-61
2021/10/31 11:14:02;;;;;;;;;;;7.30;70.40;;;;;;4966842;28;81972;-60
2021/10/31 11:16:27;;;;;;;;;;;7.30;70.30;;;;;;4965135;28;82305;-60
2021/10/31 11:18:53;;;;;;;;;;;7.30;70.20;;;;;;4966777;28;83481;-60
2021/10/31 11:21:18;;;;;;;;;;;7.30;70.30;;;;;;4962284;28;83018;-60
2021/10/31 11:23:46;;;;;;;;;;;7.30;70.20;;;;;;4962370;28;84710;-60
2021/10/31 11:26:13;;;;;;;;;;;7.40;70.30;;;;;;4964140;28;83061;-60
2021/10/31 11:28:39;;;;;;;;;;;7.30;70.40;;;;;;4964936;28;83273;-60
2021/10/31 11:31:04;;;;;;;;;;;7.40;70.30;;;;;;4963744;28;83614;-60
2021/10/31 11:33:31;;;;;;;;;;;7.40;70.20;;;;;;4964244;28;82922;-60
2021/10/31 11:35:57;;;;;;;;;;;7.40;70.30;;;;;;4966611;28;82102;-60
2021/10/31 11:38:23;;;;;;;;;;;7.40;70.30;;;;;;4965649;28;83787;-60
2021/10/31 11:41:00;;;;;;;;;;;7.50;70.40;;;;;;4967138;28;84510;-60
2021/10/31 11:43:27;;;;;;;;;;;7.40;70.40;;;;;;4965644;28;84124;-60
2021/10/31 11:45:53;;;;;;;;;;;7.50;70.40;;;;;;4962884;28;85484;-60
2021/10/31 11:48:19;;;;;;;;;;;7.50;70.40;;;;;;4963015;28;82111;-60
2021/10/31 11:51:03;;;;;;;;;;;7.50;70.40;;;;;;4964590;28;83386;-60
2021/10/31 11:53:29;;;;;;;;;;;7.50;70.40;;;;;;4965898;28;84680;-60
2021/10/31 11:55:57;;;;;;;;;;;7.50;70.50;;;;;;4965093;28;82146;-60
2021/10/31 11:58:29;;;;;;;;;;;7.50;70.40;;;;;;4963687;28;83920;-60
2021/10/31 12:00:56;;;;;;;;;;;7.50;70.60;;;;;;4961678;28;84539;-60
2021/10/31 12:03:33;;;;;;;;;;;7.50;70.70;;;;;;4965560;28;81349;-60
2021/10/31 12:06:00;;;;;;;;;;;7.50;70.60;;;;;;4964408;28;82678;-60
2021/10/31 12:08:44;;;;;;;;;;;7.50;70.80;;;;;;4965112;28;82146;-60
2021/10/31 12:11:10;;;;;;;;;;;7.60;70.80;;;;;;4961094;28;84176;-60
2021/10/31 12:13:45;;;;;;;;;;;7.60;70.80;;;;;;4961397;28;83348;-60
2021/10/31 12:16:13;;;;;;;;;;;7.60;70.60;;;;;;4962513;28;83934;-60
2021/10/31 12:18:42;;;;;;;;;;;7.60;70.70;;;;;;4964929;28;82207;-60
2021/10/31 12:21:26;;;;;;;;;;;7.60;70.70;;;;;;4963861;28;83664;-60
2021/10/31 12:23:53;;;;;;;;;;;7.70;70.50;;;;;;4961980;28;82137;-60
2021/10/31 12:26:20;;;;;;;;;;;7.60;70.60;;;;;;4965591;28;84116;-60
2021/10/31 12:28:46;;;;;;;;;;;7.70;70.80;;;;;;4961975;28;81400;-60
2021/10/31 12:31:22;;;;;;;;;;;7.70;70.70;;;;;;4962958;28;82091;-60
2021/10/31 12:34:06;;;;;;;;;;;7.70;70.50;;;;;;4965028;28;82284;-60
2021/10/31 12:36:31;;;;;;;;;;;7.70;70.70;;;;;;4961676;28;83149;-60
2021/10/31 12:38:58;;;;;;;;;;;7.70;70.80;;;;;;4962228;28;83327;-60
2021/10/31 12:41:24;;;;;;;;;;;7.70;70.90;;;;;;4961487;28;83154;-60
2021/10/31 12:43:52;;;;;;;;;;;7.70;70.70;;;;;;4965576;28;82122;-60
2021/10/31 12:46:22;;;;;;;;;;;7.70;70.90;;;;;;4961031;28;84214;-61
2021/10/31 12:48:52;;;;;;;;;;;7.70;71.70;;;;;;4947974;28;82665;-60
2021/10/31 12:51:22;;;;;;;;;;;8.00;72.40;;;;;;4945325;28;82867;-59
2021/10/31 12:53:52;;;;;;;;;;;8.20;72.40;;;;;;4945285;28;82857;-66
2021/10/31 12:56:17;;;;;;;;;;;8.20;71.90;;;;;;4942153;28;82783;-54
2021/10/31 12:58:43;;;;;;;;;;;8.20;71.90;;;;;;4944717;28;82901;-52
2021/10/31 13:01:08;;;;;;;;;;;8.20;71.80;;;;;;4941932;28;83515;-60
2021/10/31 13:03:34;;;;;;;;;;;8.30;71.90;;;;;;4942002;28;82130;-60
2021/10/31 13:05:59;;;;;;;;;;;8.60;70.90;;;;;;4941595;28;82227;-61
2021/10/31 13:08:25;;;;;;;;;;;8.90;69.40;;;;;;4943579;28;82116;-63
2021/10/31 13:31:22;;;;;;;;;;;9.00;69.20;;;;;;5082617;27;80366;-64
2021/10/31 13:34:07;;;;;;;;;;;8.90;70.40;;;;;;5078812;27;80415;-64
2021/10/31 13:36:34;;;;;;;;;;;8.90;69.10;;;;;;5080229;27;82233;-66
2021/10/31 13:39:06;;;;;;;;;;;9.00;68.70;;;;;;5078443;27;82084;-59
2021/10/31 13:41:37;;;;;;;;;;;9.00;68.90;;;;;;5078360;27;80364;-63
2021/10/31 13:44:15;;;;;;;;;;;9.00;69.50;;;;;;5094410;27;83907;-58
2021/10/31 14:00:44;;;;;;;;;;;9.00;68.50;;;;;;5039997;27;80330;-63
2021/10/31 14:03:16;;;;;;;;;;;9.00;68.80;;;;;;5039402;27;80300;-63
2021/10/31 14:05:44;;;;;;;;;;;9.00;68.90;;;;;;5041272;28;81955;-62
2021/10/31 14:08:10;;;;;;;;;;;9.00;68.80;;;;;;5039031;28;80900;-63
2021/10/31 14:10:39;;;;;;;;;;;9.00;68.80;;;;;;5037949;28;80427;-62
2021/10/31 14:13:06;;;;;;;;;;;9.00;68.80;;;;;;5039595;28;81053;-62
2021/10/31 14:15:32;;;;;;;;;;;9.00;69.40;;;;;;5037458;28;81530;-61
2021/10/31 14:17:58;;;;;;;;;;;9.00;69.00;;;;;;5036845;27;80370;-58
2021/10/31 14:20:29;;;;;;;;;;;9.10;69.30;;;;;;5043619;27;80874;-61
2021/10/31 14:22:54;;;;;;;;;;;9.10;70.60;;;;;;5040217;27;80347;-63
2021/10/31 14:25:24;;;;;;;;;;;9.10;70.60;;;;;;5039597;28;80990;-62
2021/10/31 14:27:49;;;;;;;;;;;9.10;70.70;;;;;;5040359;28;81435;-70
2021/10/31 14:30:17;;;;;;;;;;;9.10;72.30;;;;;;5039732;27;80384;-63
2021/10/31 14:32:50;;;;;;;;;;;9.20;70.90;;;;;;5037337;27;80745;-64
2021/10/31 14:35:17;;;;;;;;;;;9.10;68.90;;;;;;5039288;27;80732;-64
2021/10/31 14:38:00;;;;;;;;;;;9.10;69.20;;;;;;5037385;27;80353;-64
2021/10/31 14:40:26;;;;;;;;;;;9.10;69.00;;;;;;5039658;27;80382;-63
2021/10/31 14:43:10;;;;;;;;;;;9.10;68.70;;;;;;5041524;27;80612;-62
2021/10/31 14:45:35;;;;;;;;;;;9.20;69.20;;;;;;5039789;27;81004;-62
2021/10/31 14:48:18;;;;;;;;;;;9.10;68.80;;;;;;5036731;27;81470;-62
2021/10/31 14:50:43;;;;;;;;;;;9.20;68.70;;;;;;5041118;27;80450;-63
2021/10/31 14:53:13;;;;;;;;;;;9.20;69.10;;;;;;5040751;28;81451;-63
2021/10/31 14:55:40;;;;;;;;;;;9.20;69.20;;;;;;5036150;27;82198;-63
2021/10/31 14:58:05;;;;;;;;;;;9.20;69.30;;;;;;5039689;27;82067;-63
2021/10/31 15:00:31;;;;;;;;;;;9.20;69.40;;;;;;5033561;28;81279;-63
2021/10/31 15:02:56;;;;;;;;;;;9.10;70.00;;;;;;5027476;28;80768;-63
2021/10/31 15:05:22;;;;;;;;;;;9.10;69.60;;;;;;5029886;28;80396;-63
2021/10/31 15:07:47;;;;;;;;;;;9.10;69.50;;;;;;5026298;28;80534;-63